Time;durP1;ratioP1;P1;durP2;ratioP2;P2;SDS_P1;SDS_P2;PMS_P1;PMS_P2;Temp;Humidity;BMP_temperature;BMP_pressure;BME280_temperature;BME280_humidity;BME280_pressure;Samples;Min_cycle;Max_cycle;Signal;HPM_P1;HPM_P2
2022/05/05 00:00:06;;;;;;;7.97;4.80;;;13.20;99.90;;;;;;5061876;28;20646;-77
2022/05/05 00:02:32;;;;;;;8.38;4.90;;;13.20;99.90;;;;;;5058749;28;20049;-77
2022/05/05 00:04:58;;;;;;;6.43;3.63;;;13.10;99.90;;;;;;5059770;28;20149;-77
2022/05/05 00:07:24;;;;;;;10.02;4.25;;;13.10;99.90;;;;;;5060510;28;20033;-77
2022/05/05 00:09:50;;;;;;;7.95;4.15;;;13.10;99.90;;;;;;5061039;28;20904;-77
2022/05/05 00:15:00;;;;;;;7.72;3.72;;;13.00;99.90;;;;;;5061261;28;20068;-77
2022/05/05 00:17:26;;;;;;;11.07;5.05;;;13.00;99.90;;;;;;5063308;28;20041;-77
2022/05/05 00:19:52;;;;;;;8.23;4.65;;;13.00;99.90;;;;;;5077863;28;20111;-77
2022/05/05 00:22:18;;;;;;;7.88;4.50;;;13.00;99.90;;;;;;5080330;27;20160;-77
2022/05/05 00:24:43;;;;;;;5.97;3.90;;;12.90;99.90;;;;;;5063981;28;20057;-77
2022/05/05 00:27:09;;;;;;;7.28;4.10;;;13.00;99.90;;;;;;5064818;28;20142;-77
2022/05/05 00:29:35;;;;;;;7.63;4.57;;;12.90;99.90;;;;;;5064529;28;20040;-78
2022/05/05 00:32:01;;;;;;;8.63;3.97;;;12.90;99.90;;;;;;5062711;28;20060;-77
2022/05/05 00:34:27;;;;;;;7.32;3.88;;;12.90;99.90;;;;;;5063262;28;20509;-77
2022/05/05 00:36:53;;;;;;;4.78;3.03;;;12.90;99.90;;;;;;5062928;28;20041;-78
2022/05/05 00:39:18;;;;;;;7.30;4.20;;;12.80;99.90;;;;;;5063528;28;20048;-77
2022/05/05 00:41:46;;;;;;;7.57;3.65;;;12.80;99.90;;;;;;5064765;28;20079;-78
2022/05/05 00:44:13;;;;;;;7.95;4.30;;;12.80;99.90;;;;;;5064080;28;20535;-78
2022/05/05 00:47:03;;;;;;;7.93;3.67;;;12.80;99.90;;;;;;5062653;28;20983;-78
2022/05/05 00:49:37;;;;;;;6.28;4.20;;;12.80;99.90;;;;;;5057290;28;20044;-77
2022/05/05 00:52:07;;;;;;;7.50;4.68;;;12.90;99.90;;;;;;5065456;28;20037;-77
2022/05/05 00:54:33;;;;;;;6.53;4.13;;;12.70;99.90;;;;;;5065507;28;20068;-77
2022/05/05 00:56:59;;;;;;;6.35;3.83;;;12.70;99.90;;;;;;5063981;28;20459;-78
2022/05/05 00:59:25;;;;;;;7.75;4.40;;;12.20;99.90;;;;;;5064505;28;20048;-77
2022/05/05 01:01:51;;;;;;;7.78;3.92;;;12.80;99.90;;;;;;5063628;28;20049;-77
2022/05/05 01:04:17;;;;;;;8.02;3.75;;;12.70;99.90;;;;;;5063856;28;20119;-77
2022/05/05 01:06:43;;;;;;;6.85;4.13;;;12.70;99.90;;;;;;5061318;28;20139;-77
2022/05/05 01:09:09;;;;;;;5.32;3.35;;;12.60;99.90;;;;;;5062167;28;20088;-77
2022/05/05 01:11:35;;;;;;;6.82;3.65;;;12.60;99.90;;;;;;5063400;28;20502;-77
2022/05/05 01:14:00;;;;;;;5.57;3.28;;;12.60;99.90;;;;;;5063725;28;20044;-77
2022/05/05 01:16:26;;;;;;;6.82;3.97;;;12.60;99.90;;;;;;5063444;28;20040;-77
2022/05/05 01:18:55;;;;;;;5.78;3.28;;;12.60;99.90;;;;;;5069877;28;20092;-77
2022/05/05 01:21:21;;;;;;;5.03;2.97;;;12.60;99.90;;;;;;5063187;28;20049;-77
2022/05/05 01:23:47;;;;;;;5.05;2.88;;;12.60;99.90;;;;;;5060834;28;21045;-78
2022/05/05 01:28:57;;;;;;;4.97;2.92;;;12.60;99.90;;;;;;5064025;28;20115;-77
2022/05/05 01:31:23;;;;;;;6.57;3.55;;;12.60;99.90;;;;;;5081357;28;20045;-77
2022/05/05 01:33:49;;;;;;;6.18;3.63;;;12.50;99.90;;;;;;5060776;28;20044;-77
2022/05/05 01:36:15;;;;;;;6.72;3.60;;;12.50;99.90;;;;;;5062162;28;20705;-77
2022/05/05 01:38:43;;;;;;;5.68;3.63;;;12.50;99.90;;;;;;5063125;28;20047;-78
2022/05/05 01:41:10;;;;;;;6.45;3.42;;;12.50;99.90;;;;;;5075995;27;20056;-77
2022/05/05 01:43:38;;;;;;;5.38;3.17;;;12.50;99.90;;;;;;5063350;28;20037;-77
2022/05/05 01:46:05;;;;;;;5.57;3.38;;;12.50;99.90;;;;;;5063304;28;20041;-78
2022/05/05 01:48:31;;;;;;;8.07;3.88;;;12.40;99.90;;;;;;5063809;28;20045;-77
2022/05/05 01:50:57;;;;;;;5.78;3.17;;;12.40;99.90;;;;;;5065206;28;20041;-77
2022/05/05 01:56:58;;;;;;;6.22;3.45;;;12.40;99.90;;;;;;5058330;28;20052;-77
2022/05/05 02:00:04;;;;;;;5.50;2.97;;;12.30;99.90;;;;;;5065289;28;20095;-77
2022/05/05 02:02:30;;;;;;;7.20;3.60;;;12.20;99.90;;;;;;5041405;28;20093;-77
2022/05/05 02:04:57;;;;;;;7.13;3.15;;;12.30;99.90;;;;;;5032167;28;20108;-78
2022/05/05 02:07:23;;;;;;;6.72;3.42;;;12.30;99.90;;;;;;5024975;28;21408;-77
2022/05/05 02:09:49;;;;;;;7.00;3.65;;;12.20;99.90;;;;;;5039112;28;20084;-77
2022/05/05 02:12:15;;;;;;;7.50;3.67;;;12.20;99.90;;;;;;5040125;28;20140;-78
2022/05/05 02:14:41;;;;;;;5.72;2.75;;;12.10;99.90;;;;;;5040396;28;20591;-78
2022/05/05 02:17:06;;;;;;;5.72;3.60;;;12.10;99.90;;;;;;5040198;28;20111;-77
2022/05/05 02:19:32;;;;;;;5.90;3.33;;;12.10;99.90;;;;;;5041169;28;20051;-77
2022/05/05 02:21:58;;;;;;;5.95;3.22;;;12.00;99.90;;;;;;5041252;28;20069;-78
2022/05/05 02:24:44;;;;;;;8.35;4.32;;;12.00;99.90;;;;;;5039772;28;20100;-77
2022/05/05 02:27:10;;;;;;;5.45;3.15;;;11.80;99.90;;;;;;5029440;28;20110;-77
2022/05/05 02:30:08;;;;;;;6.82;3.17;;;12.00;99.90;;;;;;5038876;28;20045;-78
2022/05/05 02:32:34;;;;;;;6.78;3.20;;;11.90;99.90;;;;;;5018261;28;20050;-77
2022/05/05 02:35:00;;;;;;;8.95;3.90;;;11.90;99.90;;;;;;5060981;28;20067;-77
2022/05/05 02:40:10;;;;;;;6.00;3.60;;;11.80;99.90;;;;;;5063829;28;20044;-77
2022/05/05 02:42:36;;;;;;;11.10;4.38;;;11.80;99.90;;;;;;5062415;28;20956;-77
2022/05/05 02:45:01;;;;;;;6.78;3.42;;;11.80;99.90;;;;;;5058118;28;20049;-77
2022/05/05 02:47:27;;;;;;;8.75;4.03;;;11.70;99.90;;;;;;5078404;28;20053;-78
2022/05/05 02:49:53;;;;;;;7.65;4.35;;;11.80;99.90;;;;;;5060009;28;20045;-77
2022/05/05 02:52:18;;;;;;;8.70;4.25;;;11.80;99.90;;;;;;5060137;28;20082;-78
2022/05/05 02:54:47;;;;;;;6.50;3.10;;;11.80;99.90;;;;;;5062847;28;20055;-77
2022/05/05 02:57:16;;;;;;;6.82;3.80;;;11.80;99.90;;;;;;5060645;28;20094;-78
2022/05/05 02:59:42;;;;;;;7.85;4.30;;;11.70;99.90;;;;;;5062975;28;20048;-77
2022/05/05 03:02:08;;;;;;;6.07;4.07;;;11.80;99.90;;;;;;5063600;28;20052;-77
2022/05/05 03:05:04;;;;;;;6.80;3.83;;;11.80;99.90;;;;;;5062017;28;20051;-77
2022/05/05 03:07:30;;;;;;;7.22;3.58;;;11.70;99.90;;;;;;5062531;28;20040;-78
2022/05/05 03:09:56;;;;;;;8.68;3.50;;;11.70;99.90;;;;;;5060890;28;20067;-77
2022/05/05 03:12:22;;;;;;;7.13;3.75;;;11.70;99.90;;;;;;5059058;28;20131;-77
2022/05/05 03:14:50;;;;;;;9.48;4.53;;;11.60;99.90;;;;;;5061433;28;20102;-77
2022/05/05 03:17:16;;;;;;;7.15;4.18;;;11.60;99.90;;;;;;5061286;28;20112;-78
2022/05/05 03:19:42;;;;;;;5.53;3.60;;;11.60;99.90;;;;;;5058408;28;20495;-78
2022/05/05 03:22:08;;;;;;;9.25;4.38;;;11.60;99.90;;;;;;5059256;28;20052;-78
2022/05/05 03:24:34;;;;;;;8.63;4.10;;;11.60;99.90;;;;;;5060721;28;20412;-78
2022/05/05 03:27:01;;;;;;;6.68;3.80;;;11.60;99.90;;;;;;5060447;28;20033;-78
2022/05/05 03:29:27;;;;;;;8.00;4.45;;;11.50;99.90;;;;;;5060953;28;20036;-79
2022/05/05 03:31:53;;;;;;;8.98;4.15;;;11.60;99.90;;;;;;5060225;28;20539;-79
2022/05/05 03:34:19;;;;;;;7.97;4.45;;;11.60;99.90;;;;;;5060262;28;20044;-78
2022/05/05 03:36:45;;;;;;;7.63;3.83;;;11.60;99.90;;;;;;5062409;28;20045;-78
2022/05/05 03:39:11;;;;;;;6.20;3.40;;;11.50;99.90;;;;;;5059516;28;20900;-78
2022/05/05 03:41:37;;;;;;;7.93;5.03;;;11.50;99.90;;;;;;5062725;28;20519;-77
2022/05/05 03:44:05;;;;;;;9.15;4.30;;;11.50;99.90;;;;;;5061450;28;20044;-77
2022/05/05 03:46:31;;;;;;;11.73;4.25;;;11.50;99.90;;;;;;5059206;28;20037;-77
2022/05/05 03:48:56;;;;;;;6.53;3.80;;;11.50;99.90;;;;;;5060667;28;20470;-77
2022/05/05 03:51:22;;;;;;;7.78;4.07;;;11.50;99.90;;;;;;5061365;28;20557;-77
2022/05/05 03:53:48;;;;;;;6.63;3.55;;;11.50;99.90;;;;;;5059596;28;20163;-77
2022/05/05 03:56:14;;;;;;;6.43;3.75;;;11.50;99.90;;;;;;5061681;28;20041;-77
2022/05/05 03:58:39;;;;;;;5.95;3.83;;;11.50;99.90;;;;;;5062090;28;20535;-78
2022/05/05 04:01:05;;;;;;;7.65;4.50;;;11.50;99.90;;;;;;5062495;28;20132;-77
2022/05/05 04:03:31;;;;;;;7.55;3.83;;;11.40;99.90;;;;;;5060620;28;20115;-78
2022/05/05 04:05:57;;;;;;;7.85;4.45;;;11.40;99.90;;;;;;5060836;28;20718;-77
2022/05/05 04:08:23;;;;;;;6.35;3.92;;;11.40;99.90;;;;;;5058297;28;20503;-77
2022/05/05 04:10:49;;;;;;;6.10;2.92;;;11.30;99.90;;;;;;5061571;28;20285;-78
2022/05/05 04:14:15;;;;;;;6.13;3.20;;;11.40;99.90;;;;;;5060881;28;20423;-79
2022/05/05 04:16:43;;;;;;;6.18;3.20;;;12.30;99.90;;;;;;5024625;28;20056;-77
2022/05/05 04:19:09;;;;;;;6.40;3.47;;;11.40;99.90;;;;;;5062800;28;20535;-77
2022/05/05 04:21:35;;;;;;;7.45;3.95;;;11.40;99.90;;;;;;5061604;28;20094;-77
2022/05/05 04:24:00;;;;;;;5.80;3.92;;;11.30;99.90;;;;;;5059099;28;20599;-76
2022/05/05 04:26:28;;;;;;;8.20;4.10;;;11.30;99.90;;;;;;5059878;28;20064;-77
2022/05/05 04:28:57;;;;;;;5.53;3.35;;;11.40;99.90;;;;;;5058262;28;20112;-77
2022/05/05 04:31:25;;;;;;;7.82;3.85;;;11.40;99.90;;;;;;5060759;28;20607;-77
2022/05/05 04:33:51;;;;;;;6.40;3.65;;;11.40;99.90;;;;;;5059759;28;20488;-77
2022/05/05 04:36:17;;;;;;;5.07;2.97;;;11.30;99.90;;;;;;5061355;28;20040;-77
2022/05/05 04:38:44;;;;;;;5.78;3.38;;;11.40;99.90;;;;;;5060739;28;20131;-77
2022/05/05 04:41:24;;;;;;;7.18;3.83;;;11.40;99.90;;;;;;5058335;28;20041;-77
2022/05/05 04:43:49;;;;;;;6.28;3.60;;;11.50;99.90;;;;;;5059423;28;21298;-76
2022/05/05 04:46:15;;;;;;;5.85;3.08;;;11.30;99.90;;;;;;5059114;28;20032;-76
2022/05/05 04:48:41;;;;;;;6.10;3.30;;;11.30;99.90;;;;;;5057598;28;20634;-76
2022/05/05 04:51:07;;;;;;;7.60;3.55;;;11.30;99.90;;;;;;5057642;28;20048;-77
2022/05/05 04:53:32;;;;;;;7.30;3.95;;;11.30;99.90;;;;;;5059063;28;20041;-77
2022/05/05 04:55:58;;;;;;;6.22;3.63;;;11.30;99.90;;;;;;5061400;28;20040;-77
2022/05/05 04:58:24;;;;;;;10.05;4.03;;;11.30;99.90;;;;;;5058910;28;20052;-77
2022/05/05 05:00:50;;;;;;;8.50;3.97;;;11.40;99.90;;;;;;5058496;28;20984;-77
2022/05/05 05:06:01;;;;;;;7.13;3.58;;;11.40;99.90;;;;;;5060922;28;20124;-77
2022/05/05 05:08:27;;;;;;;9.45;4.55;;;11.40;99.90;;;;;;5061318;28;20771;-78
2022/05/05 05:10:53;;;;;;;6.22;3.88;;;11.50;99.90;;;;;;5063297;28;20207;-77
2022/05/05 05:13:19;;;;;;;8.48;4.55;;;11.40;99.90;;;;;;5065097;28;20037;-77
2022/05/05 05:15:53;;;;;;;7.53;3.95;;;11.30;99.90;;;;;;5063111;28;20045;-77
2022/05/05 05:18:19;;;;;;;8.82;4.10;;;11.40;99.90;;;;;;5062496;28;20064;-77
2022/05/05 05:20:45;;;;;;;7.80;4.20;;;11.40;99.90;;;;;;5064927;28;20179;-77
2022/05/05 05:23:11;;;;;;;13.95;5.90;;;11.40;99.90;;;;;;5062709;28;20855;-77
2022/05/05 05:25:37;;;;;;;7.38;3.40;;;11.40;99.90;;;;;;5059671;28;20049;-75
2022/05/05 05:28:03;;;;;;;6.20;3.58;;;11.40;99.90;;;;;;5070209;28;20040;-77
2022/05/05 05:30:31;;;;;;;8.60;3.97;;;11.50;99.90;;;;;;5065525;28;20122;-90
2022/05/05 05:32:57;;;;;;;8.73;5.13;;;11.50;99.90;;;;;;5065653;28;20045;-77
2022/05/05 05:35:23;;;;;;;6.57;3.40;;;11.40;99.90;;;;;;5065310;28;20045;-77
2022/05/05 05:37:51;;;;;;;8.18;3.70;;;11.50;99.90;;;;;;5065421;28;20036;-78
2022/05/05 05:40:17;;;;;;;6.15;3.13;;;11.50;99.90;;;;;;5064570;28;20206;-78
2022/05/05 05:42:43;;;;;;;6.65;3.88;;;11.50;99.90;;;;;;5078919;27;20095;-78
2022/05/05 05:45:10;;;;;;;9.10;4.30;;;11.50;99.90;;;;;;5062474;28;20519;-77
2022/05/05 05:47:35;;;;;;;6.90;3.95;;;11.50;99.90;;;;;;5065130;28;20075;-77
2022/05/05 05:50:01;;;;;;;7.28;3.55;;;11.50;99.90;;;;;;5066518;28;20060;-77
2022/05/05 05:52:27;;;;;;;6.43;3.80;;;11.60;99.90;;;;;;5065084;28;20048;-78
2022/05/05 05:54:53;;;;;;;5.50;3.38;;;11.60;99.90;;;;;;5063172;28;20473;-77
2022/05/05 05:57:18;;;;;;;8.07;4.47;;;11.60;99.90;;;;;;5066063;28;20073;-78
2022/05/05 05:59:44;;;;;;;8.63;3.72;;;11.60;99.90;;;;;;5080751;28;21037;-77
2022/05/05 06:04:54;;;;;;;7.97;4.13;;;11.70;99.90;;;;;;5065402;28;20106;-77
2022/05/05 06:07:20;;;;;;;7.00;3.42;;;11.60;99.90;;;;;;5064842;28;21168;-79
2022/05/05 06:09:46;;;;;;;8.45;4.47;;;11.70;99.90;;;;;;5061933;28;20036;-78
2022/05/05 06:12:12;;;;;;;9.65;4.22;;;11.70;99.90;;;;;;5065458;28;20052;-78
2022/05/05 06:14:38;;;;;;;9.02;3.80;;;11.80;99.90;;;;;;5064626;28;20455;-78
2022/05/05 06:17:04;;;;;;;8.10;3.05;;;11.80;99.90;;;;;;5063894;28;20056;-78
2022/05/05 06:19:30;;;;;;;8.50;3.75;;;11.80;99.90;;;;;;5064715;28;20037;-77
2022/05/05 06:21:57;;;;;;;7.85;3.92;;;11.90;99.90;;;;;;5062617;28;20048;-78
2022/05/05 06:24:23;;;;;;;5.03;3.70;;;11.90;99.90;;;;;;5065169;28;20091;-83
2022/05/05 06:26:49;;;;;;;7.30;3.67;;;12.00;99.90;;;;;;5064105;28;20127;-79
2022/05/05 06:29:14;;;;;;;7.47;3.45;;;12.00;99.90;;;;;;5078870;28;20049;-79
2022/05/05 06:31:40;;;;;;;8.43;4.70;;;12.00;99.90;;;;;;5063778;28;20156;-79
2022/05/05 06:34:06;;;;;;;8.77;4.32;;;12.00;99.90;;;;;;5060825;28;20534;-78
2022/05/05 06:36:32;;;;;;;7.43;4.15;;;12.00;99.90;;;;;;5063798;28;20068;-78
2022/05/05 06:38:57;;;;;;;8.25;4.45;;;12.10;99.90;;;;;;5061785;28;20091;-78
2022/05/05 06:41:26;;;;;;;9.55;4.45;;;12.10;99.90;;;;;;5062844;28;20048;-78
2022/05/05 06:43:52;;;;;;;9.48;5.40;;;12.20;99.90;;;;;;5061549;28;20048;-82
2022/05/05 06:46:18;;;;;;;10.95;6.65;;;12.20;99.90;;;;;;5061536;28;21112;-76
2022/05/05 06:48:43;;;;;;;9.90;5.38;;;12.20;99.90;;;;;;5063879;28;20646;-77
2022/05/05 06:51:09;;;;;;;9.93;4.28;;;12.30;99.90;;;;;;5062942;28;20041;-77
2022/05/05 06:53:35;;;;;;;8.85;4.85;;;12.30;99.90;;;;;;5066155;28;20545;-77
2022/05/05 06:56:01;;;;;;;8.60;4.03;;;12.30;99.90;;;;;;5065783;28;20055;-77
2022/05/05 06:58:27;;;;;;;10.75;5.15;;;12.30;99.90;;;;;;5065527;28;20603;-77
2022/05/05 07:03:36;;;;;;;11.05;5.28;;;12.30;99.90;;;;;;5065942;28;20053;-77
2022/05/05 07:06:02;;;;;;;11.73;6.65;;;12.30;99.90;;;;;;5065203;28;20503;-77
2022/05/05 07:10:52;;;;;;;9.88;6.03;;;12.40;99.90;;;;;;5065170;28;20526;-77
2022/05/05 07:11:15;;;;;;;7.32;4.65;;;12.40;99.90;;;;;;5065450;28;20048;-77
2022/05/05 07:13:41;;;;;;;11.32;5.78;;;12.40;99.90;;;;;;5064027;28;20037;-77
2022/05/05 07:16:07;;;;;;;10.82;6.53;;;12.40;99.90;;;;;;5065854;28;20138;-77
2022/05/05 07:18:32;;;;;;;12.25;6.82;;;12.40;99.90;;;;;;5065309;28;20045;-77
2022/05/05 07:20:58;;;;;;;13.13;4.57;;;12.40;99.90;;;;;;5066729;28;20041;-77
2022/05/05 07:23:24;;;;;;;14.05;5.50;;;12.50;99.90;;;;;;5064232;28;20526;-77
2022/05/05 07:25:50;;;;;;;13.23;5.75;;;12.50;99.90;;;;;;5081102;28;20040;-77
2022/05/05 07:28:16;;;;;;;12.95;5.88;;;12.50;99.90;;;;;;5066700;28;20103;-77
2022/05/05 07:30:42;;;;;;;10.70;5.95;;;12.50;99.90;;;;;;5063409;28;20044;-77
2022/05/05 07:33:07;;;;;;;10.30;5.47;;;12.50;99.90;;;;;;5073809;28;20524;-77
2022/05/05 07:35:33;;;;;;;14.60;6.63;;;12.50;99.90;;;;;;5063516;28;20048;-77
2022/05/05 07:38:00;;;;;;;9.02;5.10;;;12.70;99.90;;;;;;5063959;28;20053;-77
2022/05/05 07:40:25;;;;;;;11.13;5.22;;;12.70;99.90;;;;;;5065340;28;20554;-78
2022/05/05 07:42:51;;;;;;;14.00;6.88;;;12.80;99.90;;;;;;5065250;28;20052;-76
2022/05/05 07:45:18;;;;;;;13.40;5.88;;;12.80;99.90;;;;;;5065772;28;20072;-77
2022/05/05 07:48:00;;;;;;;9.98;5.30;;;12.80;99.90;;;;;;5063134;28;20135;-77
2022/05/05 07:50:51;;;;;;;13.25;5.53;;;12.80;99.90;;;;;;5066183;28;20053;-77
2022/05/05 07:53:18;;;;;;;9.25;4.90;;;12.90;99.90;;;;;;5043170;28;20553;-76
2022/05/05 07:55:44;;;;;;;8.43;5.15;;;12.50;99.90;;;;;;5030019;28;20048;-76
2022/05/05 07:58:09;;;;;;;13.93;7.13;;;13.00;99.90;;;;;;5046064;28;21312;-76
2022/05/05 08:00:35;;;;;;;13.25;6.25;;;13.00;99.90;;;;;;5046423;28;20041;-76
2022/05/05 08:03:01;;;;;;;13.65;6.68;;;13.00;99.90;;;;;;5046023;28;20081;-77
2022/05/05 08:05:27;;;;;;;15.23;5.72;;;13.10;99.90;;;;;;5028308;28;20045;-77
2022/05/05 08:07:53;;;;;;;10.00;5.05;;;13.20;99.90;;;;;;5046472;28;20053;-75
2022/05/05 08:10:22;;;;;;;12.68;6.53;;;13.30;99.90;;;;;;5044771;28;20073;-76
2022/05/05 08:12:49;;;;;;;10.27;5.22;;;13.30;99.90;;;;;;5029987;28;20053;-77
2022/05/05 08:15:16;;;;;;;15.10;6.10;;;13.40;99.90;;;;;;5025021;28;20064;-77
2022/05/05 08:17:43;;;;;;;10.68;5.43;;;13.40;99.90;;;;;;5042598;28;20049;-77
2022/05/05 08:20:09;;;;;;;10.75;6.30;;;13.60;99.90;;;;;;5042457;28;20045;-78
2022/05/05 08:22:36;;;;;;;9.82;6.07;;;13.60;99.90;;;;;;5042779;28;20041;-77
2022/05/05 08:30:32;;;;;;;9.90;5.93;;;13.90;99.90;;;;;;5064936;28;20060;-77
2022/05/05 08:32:58;;;;;;;9.50;4.88;;;14.00;99.90;;;;;;5064103;28;20072;-77
2022/05/05 08:35:24;;;;;;;10.55;4.70;;;14.00;99.90;;;;;;5064991;28;20820;-77
2022/05/05 08:37:53;;;;;;;11.15;5.63;;;14.00;99.90;;;;;;5064137;28;20752;-77
2022/05/05 08:40:24;;;;;;;9.73;5.28;;;14.10;99.90;;;;;;5063341;28;20531;-77
2022/05/05 08:42:50;;;;;;;10.87;5.60;;;14.10;99.90;;;;;;5064823;28;20068;-77
2022/05/05 08:45:16;;;;;;;9.70;5.55;;;14.20;99.90;;;;;;5067835;28;20048;-78
2022/05/05 08:47:44;;;;;;;10.57;5.60;;;14.30;99.90;;;;;;5066734;28;20060;-77
2022/05/05 08:50:11;;;;;;;9.00;4.90;;;14.30;99.90;;;;;;5067426;28;20064;-77
2022/05/05 08:52:44;;;;;;;11.15;5.65;;;14.40;99.90;;;;;;5068390;28;20040;-78
2022/05/05 08:55:14;;;;;;;10.48;5.57;;;14.60;99.90;;;;;;5067740;28;20041;-78
2022/05/05 08:57:41;;;;;;;10.65;6.03;;;14.70;99.90;;;;;;5068241;28;20041;-78
2022/05/05 09:00:08;;;;;;;13.07;5.85;;;14.70;99.90;;;;;;5066125;28;20478;-77
2022/05/05 09:02:33;;;;;;;8.55;5.43;;;14.80;99.90;;;;;;5067315;28;20615;-78
2022/05/05 09:04:59;;;;;;;9.32;6.45;;;14.80;99.90;;;;;;5065093;28;20048;-78
2022/05/05 09:07:50;;;;;;;11.57;5.40;;;14.90;99.90;;;;;;5065840;28;20048;-78
2022/05/05 09:10:17;;;;;;;11.67;5.37;;;14.80;99.90;;;;;;5065599;28;20041;-78
2022/05/05 09:13:00;;;;;;;12.57;5.40;;;14.80;99.90;;;;;;5082283;27;20061;-78
2022/05/05 09:15:34;;;;;;;10.23;5.53;;;14.90;99.90;;;;;;5065389;28;20556;-78
2022/05/05 09:18:14;;;;;;;9.52;5.35;;;14.90;99.90;;;;;;5067214;28;20079;-77
2022/05/05 09:20:41;;;;;;;11.20;5.40;;;14.90;99.90;;;;;;5067643;28;20044;-78
2022/05/05 09:23:07;;;;;;;8.75;5.78;;;15.10;99.90;;;;;;5069131;28;20691;-77
2022/05/05 09:25:44;;;;;;;9.75;5.70;;;15.20;99.90;;;;;;5066848;28;20171;-77
2022/05/05 09:28:25;;;;;;;9.45;5.60;;;15.20;99.90;;;;;;5066005;28;20059;-78
2022/05/05 09:30:54;;;;;;;11.13;5.70;;;15.20;99.90;;;;;;5067381;28;21135;-77
2022/05/05 09:33:37;;;;;;;9.70;6.07;;;15.20;99.90;;;;;;5066509;28;20048;-77
2022/05/05 09:36:05;;;;;;;12.30;6.80;;;15.20;99.90;;;;;;5068285;28;20242;-78
2022/05/05 09:38:47;;;;;;;10.98;5.78;;;15.10;99.90;;;;;;5067290;28;20527;-77
2022/05/05 09:41:13;;;;;;;14.35;5.57;;;15.20;99.90;;;;;;5067210;28;20051;-78
2022/05/05 09:43:39;;;;;;;12.00;5.60;;;15.30;99.90;;;;;;5067912;28;20048;-78
2022/05/05 09:46:34;;;;;;;9.90;6.05;;;15.40;99.90;;;;;;5065895;28;20041;-77
2022/05/05 09:49:14;;;;;;;10.82;5.60;;;15.40;99.90;;;;;;5049377;28;20191;-77
2022/05/05 09:57:42;;;;;;;9.10;5.07;;;15.60;99.90;;;;;;5067220;28;20082;-77
2022/05/05 10:00:25;;;;;;;10.15;5.47;;;15.50;99.90;;;;;;5064741;28;20057;-77
2022/05/05 10:05:52;;;;;;;9.48;5.45;;;15.50;99.90;;;;;;5062577;28;21089;-84
2022/05/05 10:08:49;;;;;;;11.05;5.60;;;15.80;99.90;;;;;;5060770;28;20041;-78
2022/05/05 10:11:15;;;;;;;11.80;5.88;;;15.80;99.90;;;;;;5058458;28;20084;-76
2022/05/05 10:13:45;;;;;;;9.77;6.05;;;15.90;99.90;;;;;;5060947;28;20968;-81
2022/05/05 10:16:14;;;;;;;8.35;5.13;;;15.90;99.90;;;;;;5063539;28;20451;-78
2022/05/05 10:18:41;;;;;;;10.73;5.70;;;15.80;99.90;;;;;;5064963;28;20125;-77
2022/05/05 10:21:27;;;;;;;9.70;6.65;;;15.70;99.90;;;;;;5065667;28;20123;-76
2022/05/05 10:24:28;;;;;;;9.27;4.97;;;15.60;99.90;;;;;;5062982;28;20060;-76
2022/05/05 10:26:59;;;;;;;14.90;5.85;;;15.50;99.90;;;;;;5064732;28;20069;-77
2022/05/05 10:29:31;;;;;;;11.73;6.15;;;15.40;99.90;;;;;;5062543;28;20164;-77
2022/05/05 10:32:06;;;;;;;13.50;6.40;;;15.50;99.90;;;;;;5064642;28;20037;-76
2022/05/05 10:34:51;;;;;;;9.52;5.70;;;15.60;99.90;;;;;;5062609;28;20051;-77
2022/05/05 10:37:57;;;;;;;9.93;5.88;;;15.70;99.90;;;;;;5065029;28;20040;-78
2022/05/05 10:40:44;;;;;;;14.90;5.85;;;15.80;99.90;;;;;;5065597;28;20040;-76
2022/05/05 10:43:34;;;;;;;10.80;5.15;;;15.70;99.90;;;;;;5065712;28;20041;-78
2022/05/05 10:46:23;;;;;;;6.70;4.80;;;16.10;99.90;;;;;;5066355;28;20555;-80
2022/05/05 10:48:50;;;;;;;9.90;5.60;;;15.80;99.90;;;;;;5062603;28;20114;-79
2022/05/05 10:51:39;;;;;;;7.78;5.22;;;15.90;99.90;;;;;;5061800;28;20139;-77
2022/05/05 10:54:40;;;;;;;10.90;5.93;;;16.00;99.90;;;;;;5043034;28;20080;-77
2022/05/05 10:57:30;;;;;;;11.88;6.20;;;16.40;99.90;;;;;;5032993;28;20140;-77
2022/05/05 11:00:19;;;;;;;11.38;5.30;;;16.50;99.90;;;;;;5027477;28;20041;-76
2022/05/05 11:03:04;;;;;;;8.70;5.32;;;16.60;99.90;;;;;;5025718;28;20512;-77
2022/05/05 11:05:47;;;;;;;8.60;4.40;;;16.50;99.90;;;;;;5025012;28;20084;-77
2022/05/05 11:09:18;;;;;;;9.18;5.05;;;16.50;99.90;;;;;;5025574;28;20782;-77
2022/05/05 11:12:31;;;;;;;7.18;4.22;;;16.30;99.90;;;;;;5042678;28;21155;-77
2022/05/05 11:21:32;;;;;;;8.40;5.10;;;16.40;99.90;;;;;;5034660;28;20053;-77
2022/05/05 11:21:49;;;;;;;7.40;4.85;;;16.30;99.90;;;;;;5062150;28;20040;-77
2022/05/05 11:24:31;;;;;;;9.68;4.70;;;16.10;99.90;;;;;;5063822;28;20064;-77
2022/05/05 11:27:05;;;;;;;7.78;4.57;;;16.00;99.90;;;;;;5063927;28;20167;-77
2022/05/05 11:30:05;;;;;;;7.18;4.82;;;15.90;99.90;;;;;;5063705;28;20053;-77
2022/05/05 11:32:44;;;;;;;6.65;4.57;;;15.80;99.90;;;;;;5079431;27;20045;-77
2022/05/05 11:35:23;;;;;;;8.18;4.85;;;16.00;99.90;;;;;;5062732;28;20041;-77
2022/05/05 11:38:15;;;;;;;7.75;3.78;;;15.90;99.90;;;;;;5063087;28;20037;-78
2022/05/05 11:40:51;;;;;;;6.65;3.63;;;16.00;99.90;;;;;;5062639;28;20572;-78
2022/05/05 11:46:50;;;;;;;6.88;4.55;;;16.00;99.90;;;;;;5064819;28;20121;-78
2022/05/05 11:49:35;;;;;;;;;;;;;;;;;;;;;
2022/05/05 11:52:02;;;;;;;5.45;3.30;;;16.00;99.90;;;;;;5064002;28;44762;-78
2022/05/05 11:54:41;;;;;;;6.65;3.55;;;16.10;99.90;;;;;;5062165;28;20358;-78
2022/05/05 11:57:29;;;;;;;10.38;3.90;;;15.90;99.90;;;;;;5064741;28;20131;-77
2022/05/05 12:03:34;;;;;;;5.13;3.67;;;16.40;99.90;;;;;;5064667;28;20041;-79
2022/05/05 12:06:35;;;;;;;5.28;3.53;;;16.30;99.90;;;;;;5064096;28;20041;-78
2022/05/05 12:09:02;;;;;;;10.13;4.60;;;16.70;99.90;;;;;;5048078;28;20049;-75
2022/05/05 12:11:35;;;;;;;6.40;4.68;;;16.70;99.90;;;;;;5061217;28;20041;-76
2022/05/05 12:14:14;;;;;;;6.05;3.70;;;16.60;99.90;;;;;;5062824;28;20044;-76
2022/05/05 12:16:46;;;;;;;4.30;2.80;;;16.70;99.90;;;;;;5060917;28;20078;-76
2022/05/05 12:19:22;;;;;;;5.05;2.40;;;16.50;99.90;;;;;;5082968;28;20128;-77
2022/05/05 12:21:56;;;;;;;5.45;3.17;;;16.90;99.90;;;;;;5066861;28;20055;-76
2022/05/05 12:24:27;;;;;;;5.20;4.03;;;17.00;99.90;;;;;;5074482;28;20823;-77
2022/05/05 12:27:10;;;;;;;6.45;4.00;;;17.30;99.90;;;;;;5065440;28;20044;-77
2022/05/05 12:29:50;;;;;;;5.57;3.97;;;17.40;99.90;;;;;;5079498;28;20123;-77
2022/05/05 12:32:32;;;;;;;5.43;3.58;;;17.20;99.90;;;;;;5063863;28;20057;-77
2022/05/05 12:35:11;;;;;;;5.38;3.60;;;17.10;99.90;;;;;;5062977;28;22444;-77
2022/05/05 12:38:00;;;;;;;4.90;3.08;;;17.00;99.90;;;;;;5065029;28;20771;-77
2022/05/05 12:40:27;;;;;;;5.22;3.45;;;16.70;99.90;;;;;;5065701;28;20509;-77
2022/05/05 12:43:01;;;;;;;4.90;3.38;;;17.20;99.90;;;;;;5065044;28;20135;-77
2022/05/05 12:45:30;;;;;;;5.82;3.53;;;17.40;99.90;;;;;;5065826;28;20052;-77
2022/05/05 12:47:59;;;;;;;5.40;3.35;;;17.50;99.90;;;;;;5064386;28;20809;-76
2022/05/05 12:50:48;;;;;;;5.78;3.35;;;17.60;99.90;;;;;;5066564;28;20049;-77
2022/05/05 13:01:40;;;;;;;4.32;3.20;;;17.60;99.90;;;;;;5067146;28;20098;-77
2022/05/05 13:04:10;;;;;;;9.18;3.15;;;17.70;99.90;;;;;;5065757;28;20051;-77
2022/05/05 13:06:38;;;;;;;6.60;3.17;;;17.80;99.90;;;;;;5066224;28;20072;-78
2022/05/05 13:09:05;;;;;;;5.07;3.28;;;17.80;99.90;;;;;;5067864;28;20331;-77
2022/05/05 13:11:32;;;;;;;6.53;3.65;;;17.80;99.90;;;;;;5066397;28;20664;-77
2022/05/05 13:13:58;;;;;;;4.43;2.83;;;17.80;99.90;;;;;;5067280;28;20037;-77
2022/05/05 13:16:27;;;;;;;4.45;2.63;;;17.70;99.90;;;;;;5067949;28;20921;-77
2022/05/05 13:18:53;;;;;;;7.88;3.03;;;17.60;99.90;;;;;;5065667;28;21119;-77
2022/05/05 13:21:18;;;;;;;7.40;3.17;;;17.50;99.90;;;;;;5081561;27;20037;-77
2022/05/05 13:23:44;;;;;;;4.95;3.20;;;17.30;99.90;;;;;;5064476;28;20040;-74
2022/05/05 13:26:11;;;;;;;6.45;4.25;;;17.20;99.90;;;;;;5067562;28;20091;-74
2022/05/05 13:28:38;;;;;;;4.80;3.33;;;17.20;99.90;;;;;;5066499;28;20124;-74
2022/05/05 13:31:03;;;;;;;4.32;3.63;;;17.20;99.90;;;;;;5067823;28;20054;-75
2022/05/05 13:33:29;;;;;;;6.18;2.88;;;17.30;99.90;;;;;;5066551;28;20045;-74
2022/05/05 13:35:55;;;;;;;5.53;2.80;;;17.40;99.90;;;;;;5064250;28;20052;-78
2022/05/05 13:38:25;;;;;;;3.53;2.17;;;17.60;99.90;;;;;;5062674;28;21526;-77
2022/05/05 13:40:51;;;;;;;2.97;2.22;;;17.80;99.90;;;;;;5064171;28;20607;-77
2022/05/05 13:43:17;;;;;;;3.28;2.65;;;17.80;99.90;;;;;;5063562;28;20055;-77
2022/05/05 13:45:43;;;;;;;4.00;2.25;;;17.70;99.90;;;;;;5065849;28;20056;-76
2022/05/05 13:48:09;;;;;;;4.10;2.25;;;17.70;99.90;;;;;;5062794;28;20072;-76
2022/05/05 13:50:35;;;;;;;3.50;1.90;;;17.70;99.90;;;;;;5063795;28;20075;-77
2022/05/05 13:53:01;;;;;;;3.28;2.40;;;17.80;99.90;;;;;;5063195;28;20044;-76
2022/05/05 13:55:28;;;;;;;2.70;2.10;;;17.90;99.90;;;;;;5062062;28;20853;-76